This demonstration page uses our WeatherBlox Daily Observations layout. Learn more.

Hourly Observations for February 18, 2020

Temp ( °F °C ) Dew Point ( °F °C ) Humidity (%) Winds ( mph kmh ) Pressure ( in mb ) Visibility ( mi km ) Precip ( " mm )
12:54 am 00:54 Clear 26 -3.3 19 -7.2 75 75 NNW 9 15 30.27 1025 10 16.0934 0 0
1:54 am 01:54 Clear 25 -3.9 18 -7.8 75 75 NW 5 7 30.27 1025 10 16.0934 0 0
2:54 am 02:54 Clear 25 -3.9 18 -7.8 75 75 NW 7 11 30.29 1026 10 16.0934 0 0
3:54 am 03:54 Clear 25 -3.9 19 -7.2 78 78 NW 7 11 30.3 1026 10 16.0934 0 0
4:54 am 04:54 Clear 23 -5 18 -7.8 81 81 N 6 9 30.31 1026 10 16.0934 0 0
5:54 am 05:54 Clear 21 -6.1 18 -7.8 88 88 NNW 5 7 30.35 1028 10 16.0934 0 0
6:54 am 06:54 Clear 19 -7.2 15 -9.4 84 84 NNW 3 6 30.37 1028 10 16.0934 0 0
7:54 am 07:54 Sunny 21 -6.1 16 -8.9 81 81 N 3 6 30.4 1029 9 14.48406 0 0
8:54 am 08:54 Sunny 29 -1.7 22 -5.6 75 75 NNW 9 15 30.4 1030 10 16.0934 0 0
9:54 am 09:54 Sunny 33 0.6 23 -5 66 66 N 6 9 30.42 1030 10 16.0934 0 0
10:54 am 10:54 Sunny 37 2.8 22 -5.6 54 54 N 9 15 30.43 1030 10 16.0934 0 0
11:54 am 11:54 Sunny 40 4.4 19 -7.2 43 43 NNW 7 11 30.42 1030 10 16.0934 0 0
12:54 pm 12:54 Sunny 42 5.6 18 -7.8 38 38 NW 5 7 30.41 1030 10 16.0934 0 0
1:54 pm 13:54 Sunny 43 6.1 17 -8.3 35 35 NNW 6 9 30.4 1029 10 16.0934 0 0
2:54 pm 14:54 Sunny 46 7.8 18 -7.8 32 32 VRB 6 9 30.39 1029 10 16.0934 0 0
3:54 pm 15:54 Sunny 45 7.2 17 -8.3 33 33 W 7 11 30.39 1029 10 16.0934 0 0
4:54 pm 16:54 Sunny 44 6.7 18 -7.8 35 35 WNW 8 13 30.4 1029 10 16.0934 0 0
5:54 pm 17:54 Sunny 42 5.6 18 -7.8 38 38 W 3 6 30.4 1030 10 16.0934 0 0
6:54 pm 18:54 Clear 33 0.6 17 -8.3 52 52 Calm 30.43 1031 10 16.0934 0 0
7:54 pm 19:54 Clear 29 -1.7 18 -7.8 63 63 Calm 30.44 1031 10 16.0934 0 0
8:54 pm 20:54 Clear 29 -1.7 20 -6.7 69 69 SSE 7 11 30.44 1031 10 16.0934 0 0
9:54 pm 21:54 Clear 30 -1.1 19 -7.2 64 64 S 7 11 30.46 1032 10 16.0934 0 0
10:54 pm 22:54 Clear 27 -2.8 18 -7.8 69 69 Calm 30.47 1032 10 16.0934 0 0
11:54 pm 23:54 Clear 26 -3.3 19 -7.2 75 75 NNW 7 11 30.49 1032 10 16.0934 0 0

Powered by AerisWeather